createdAt,value
2023-01-01T00:00:24.750Z,18.31
2023-01-01T00:01:29.301Z,18.90
2023-01-01T00:02:37.054Z,17.24
2023-01-01T00:03:39.028Z,16.92
2023-01-01T00:04:42.169Z,17.41
2023-01-01T00:05:45.368Z,16.26
2023-01-01T00:06:48.765Z,15.98
2023-01-01T00:07:51.969Z,14.59
2023-01-01T00:09:13.558Z,14.56
2023-01-01T00:10:28.782Z,13.29
2023-01-01T00:11:31.921Z,11.67
2023-01-01T00:12:35.092Z,13.08
2023-01-01T00:13:41.212Z,12.41
2023-01-01T00:14:44.469Z,11.92
2023-01-01T00:15:47.684Z,11.15
2023-01-01T00:16:51.264Z,11.54
2023-01-01T00:17:54.765Z,12.28
2023-01-01T00:18:57.952Z,11.84
2023-01-01T00:20:01.263Z,12.15
2023-01-01T00:21:13.599Z,10.81
2023-01-01T00:22:52.751Z,11.68
2023-01-01T00:23:22.115Z,10.83
2023-01-01T00:24:25.315Z,10.48
2023-01-01T00:25:28.533Z,10.24
2023-01-01T00:26:35.264Z,10.41
2023-01-01T00:27:36.708Z,9.61
2023-01-01T00:28:39.897Z,9.46
2023-01-01T00:29:43.048Z,9.43
2023-01-01T00:30:46.185Z,9.23
2023-01-01T00:31:49.348Z,8.87
2023-01-01T00:32:55.392Z,8.12
2023-01-01T00:33:58.110Z,8.39
2023-01-01T00:35:01.159Z,8.74
2023-01-01T00:36:08.684Z,8.25
2023-01-01T00:37:11.878Z,8.91
2023-01-01T00:38:15.126Z,8.70
2023-01-01T00:39:18.281Z,8.72
2023-01-01T00:40:21.713Z,8.48
2023-01-01T00:41:24.856Z,8.54
2023-01-01T00:42:28.125Z,8.23
2023-01-01T00:43:31.590Z,7.98
2023-01-01T00:44:34.708Z,8.18
2023-01-01T00:45:37.835Z,7.92
2023-01-01T00:46:41.028Z,7.92
2023-01-01T00:47:44.140Z,8.84
2023-01-01T00:48:47.178Z,7.97
2023-01-01T00:49:50.260Z,7.66
2023-01-01T00:50:53.410Z,7.78
2023-01-01T00:51:56.495Z,7.63
2023-01-01T00:52:59.537Z,7.52
2023-01-01T00:54:02.792Z,8.16
2023-01-01T00:55:06.689Z,7.55
2023-01-01T00:56:10.205Z,7.69
2023-01-01T00:57:13.356Z,7.59
2023-01-01T00:58:17.975Z,7.80
2023-01-01T00:59:26.789Z,7.17
2023-01-01T01:00:26.419Z,7.53
2023-01-01T01:01:29.765Z,7.99
2023-01-01T01:02:33.349Z,7.62
2023-01-01T01:03:39.036Z,8.01
2023-01-01T01:04:42.246Z,7.72
2023-01-01T01:05:45.510Z,7.89
2023-01-01T01:06:48.917Z,8.26
2023-01-01T01:07:52.121Z,7.95
2023-01-01T01:08:55.292Z,7.62
2023-01-01T01:09:58.405Z,7.39
2023-01-01T01:11:08.143Z,7.45
2023-01-01T01:12:17.537Z,7.37
2023-01-01T01:13:16.260Z,7.70
2023-01-01T01:14:19.433Z,6.95
2023-01-01T01:15:22.673Z,7.16
2023-01-01T01:16:29.226Z,6.74
2023-01-01T01:17:32.556Z,7.42
2023-01-01T01:18:36.251Z,6.74
2023-01-01T01:19:39.545Z,7.33
2023-01-01T01:20:46.304Z,6.99
2023-01-01T01:21:51.502Z,7.06
2023-01-01T01:22:54.579Z,5.67
2023-01-01T01:23:59.434Z,6.94
2023-01-01T01:25:02.656Z,6.95
2023-01-01T01:26:17.304Z,6.46
2023-01-01T01:27:20.492Z,7.16
2023-01-01T01:28:23.700Z,7.47
2023-01-01T01:29:26.930Z,7.78
2023-01-01T01:30:30.513Z,6.99
2023-01-01T01:31:34.435Z,7.11
2023-01-01T01:32:37.624Z,7.49
2023-01-01T01:33:43.258Z,7.78
2023-01-01T01:34:47.720Z,6.80
2023-01-01T01:35:51.907Z,7.24
2023-01-01T01:36:55.625Z,7.31
2023-01-01T01:37:59.027Z,7.94
2023-01-01T01:39:02.221Z,6.89
2023-01-01T01:40:06.569Z,7.81
2023-01-01T01:41:26.147Z,7.55
2023-01-01T01:42:17.919Z,7.14
2023-01-01T01:43:33.535Z,7.69
2023-01-01T01:44:58.488Z,7.28
2023-01-01T01:46:20.207Z,7.07
2023-01-01T01:47:38.994Z,7.22
2023-01-01T01:48:45.761Z,7.50
2023-01-01T01:49:52.413Z,7.60
2023-01-01T01:50:56.053Z,8.06
2023-01-01T01:52:01.579Z,7.74
2023-01-01T01:54:22.054Z,7.93
2023-01-01T01:55:28.116Z,8.73
2023-01-01T01:56:37.699Z,8.42
2023-01-01T01:57:41.539Z,8.66
2023-01-01T01:58:44.587Z,8.46
2023-01-01T01:59:50.215Z,7.62
2023-01-01T02:00:55.091Z,8.52
2023-01-01T02:01:59.227Z,8.73
2023-01-01T02:03:05.906Z,7.79
2023-01-01T02:04:09.681Z,7.31
2023-01-01T02:05:13.414Z,7.36
2023-01-01T02:06:19.437Z,6.87
2023-01-01T02:07:25.138Z,7.86
2023-01-01T02:08:29.539Z,7.32
2023-01-01T02:09:32.606Z,7.21
2023-01-01T02:10:36.073Z,7.41
2023-01-01T02:11:39.231Z,7.20
2023-01-01T02:12:42.459Z,7.66
2023-01-01T02:13:45.595Z,9.24
2023-01-01T02:14:48.779Z,9.48
2023-01-01T02:15:58.152Z,10.20
2023-01-01T02:17:11.236Z,10.49
2023-01-01T02:18:17.529Z,9.31
2023-01-01T02:19:32.720Z,8.63
2023-01-01T02:20:42.289Z,7.74
2023-01-01T02:22:14.876Z,8.66
2023-01-01T02:23:39.807Z,7.76
2023-01-01T02:25:01.412Z,7.70
2023-01-01T02:26:08.402Z,7.86
2023-01-01T02:27:24.588Z,7.64
2023-01-01T02:28:50.966Z,7.26
2023-01-01T02:29:57.661Z,8.76
2023-01-01T02:31:01.540Z,7.81
2023-01-01T02:33:24.557Z,7.74
2023-01-01T02:34:31.264Z,7.59
2023-01-01T02:35:41.981Z,7.64
2023-01-01T02:36:48.635Z,7.11
2023-01-01T02:37:55.409Z,6.81
2023-01-01T02:39:01.660Z,6.97
2023-01-01T02:40:05.930Z,6.62
2023-01-01T02:41:12.557Z,6.42
2023-01-01T02:42:17.273Z,6.37
2023-01-01T02:43:24.770Z,7.15
2023-01-01T02:44:27.815Z,6.76
2023-01-01T02:45:31.496Z,6.35
2023-01-01T02:46:36.044Z,7.15
2023-01-01T02:47:39.129Z,6.71
2023-01-01T02:48:46.463Z,6.71
2023-01-01T02:49:59.042Z,6.57
2023-01-01T02:51:05.942Z,6.34
2023-01-01T02:52:24.551Z,6.31
2023-01-01T02:53:31.381Z,6.67
2023-01-01T02:55:03.810Z,5.61
2023-01-01T02:56:13.591Z,6.06
2023-01-01T02:57:38.176Z,6.14
2023-01-01T02:59:05.827Z,5.89
2023-01-01T03:00:21.395Z,6.28
2023-01-01T03:01:37.272Z,5.64
2023-01-01T03:02:58.578Z,6.48
2023-01-01T03:04:17.438Z,6.82
2023-01-01T03:05:27.038Z,7.18
2023-01-01T03:06:48.884Z,7.20
2023-01-01T03:08:04.433Z,6.36
2023-01-01T03:09:26.336Z,6.72
2023-01-01T03:10:44.991Z,7.01
2023-01-01T03:11:57.667Z,7.97
2023-01-01T03:13:20.978Z,6.75
2023-01-01T03:14:39.648Z,7.58
2023-01-01T03:15:52.079Z,7.17
2023-01-01T03:16:58.727Z,7.25
2023-01-01T03:19:21.223Z,6.91
2023-01-01T03:20:27.749Z,7.19
2023-01-01T03:21:31.811Z,6.72
2023-01-01T03:23:49.695Z,6.46
2023-01-01T03:24:54.256Z,6.47
2023-01-01T03:26:00.687Z,7.03
2023-01-01T03:27:07.297Z,6.29
2023-01-01T03:28:22.984Z,6.32
2023-01-01T03:29:29.638Z,6.14
2023-01-01T03:30:35.942Z,5.86
2023-01-01T03:31:43.005Z,6.00
2023-01-01T03:33:02.807Z,6.96
2023-01-01T03:34:09.077Z,6.36
2023-01-01T03:35:14.966Z,5.74
2023-01-01T03:36:31.274Z,5.41
2023-01-01T03:37:34.453Z,5.74
2023-01-01T03:40:10.819Z,5.87
2023-01-01T03:41:29.619Z,5.93
2023-01-01T03:42:42.214Z,6.06
2023-01-01T03:43:48.923Z,6.58
2023-01-01T03:45:10.140Z,6.21
2023-01-01T03:46:16.326Z,5.73
2023-01-01T03:47:20.089Z,4.87
2023-01-01T03:48:23.355Z,5.64
2023-01-01T03:49:27.586Z,6.20
2023-01-01T03:52:16.452Z,6.39
2023-01-01T03:53:38.605Z,6.26
2023-01-01T03:55:19.888Z,6.56
2023-01-01T03:56:26.719Z,7.71
2023-01-01T03:57:45.712Z,7.16
2023-01-01T03:59:00.833Z,8.78
2023-01-01T04:01:32.351Z,10.37
2023-01-01T04:03:50.571Z,10.42
2023-01-01T04:04:54.408Z,11.71
2023-01-01T04:05:57.705Z,12.82
2023-01-01T04:07:14.195Z,12.51
2023-01-01T04:08:06.788Z,12.16
2023-01-01T04:09:13.021Z,10.63
2023-01-01T04:10:17.354Z,11.07
2023-01-01T04:11:42.640Z,10.74
2023-01-01T04:12:49.291Z,9.89
2023-01-01T04:13:52.441Z,10.45
2023-01-01T04:14:55.623Z,9.73
2023-01-01T04:15:59.034Z,9.24
2023-01-01T04:17:04.168Z,8.76
2023-01-01T04:18:07.640Z,8.19
2023-01-01T04:19:10.785Z,8.41
2023-01-01T04:20:14.304Z,7.32
2023-01-01T04:21:17.568Z,6.58
2023-01-01T04:22:22.510Z,6.47
2023-01-01T04:23:25.710Z,5.98
2023-01-01T04:24:29.096Z,6.20
2023-01-01T04:25:32.388Z,5.42
2023-01-01T04:26:35.571Z,5.29
2023-01-01T04:27:39.471Z,5.79
2023-01-01T04:28:43.388Z,5.64
2023-01-01T04:29:46.476Z,5.79
2023-01-01T04:30:49.726Z,5.76
2023-01-01T04:31:53.573Z,5.84
2023-01-01T04:32:56.847Z,6.12
2023-01-01T04:34:00.110Z,6.69
2023-01-01T04:35:04.367Z,6.27
2023-01-01T04:36:09.934Z,6.86
2023-01-01T04:37:13.904Z,7.18
2023-01-01T04:38:17.113Z,6.66
2023-01-01T04:39:20.239Z,6.08
2023-01-01T04:40:23.279Z,5.96
2023-01-01T04:41:26.354Z,6.16
2023-01-01T04:42:29.274Z,6.62
2023-01-01T04:43:32.445Z,6.42
2023-01-01T04:44:35.558Z,5.99
2023-01-01T04:45:38.919Z,5.92
2023-01-01T04:46:42.281Z,5.96
2023-01-01T04:47:45.328Z,5.67
2023-01-01T04:48:48.953Z,5.49
2023-01-01T04:49:52.385Z,5.42
2023-01-01T04:51:00.872Z,5.91
2023-01-01T04:52:04.633Z,6.14
2023-01-01T04:53:07.746Z,5.71
2023-01-01T04:54:11.011Z,5.47
2023-01-01T04:55:14.175Z,5.86
2023-01-01T04:56:19.734Z,6.16
2023-01-01T04:57:22.850Z,5.68
2023-01-01T04:58:25.905Z,4.83
2023-01-01T04:59:30.606Z,5.37
2023-01-01T05:00:34.010Z,5.57
2023-01-01T05:01:37.344Z,4.78
2023-01-01T05:02:40.656Z,5.47
2023-01-01T05:03:43.963Z,5.09
2023-01-01T05:04:47.046Z,6.73
2023-01-01T05:06:10.604Z,4.72
2023-01-01T05:07:13.893Z,6.06
2023-01-01T05:08:17.212Z,5.38
2023-01-01T05:09:20.407Z,5.07
2023-01-01T05:10:23.784Z,4.81
2023-01-01T05:11:29.528Z,5.07
2023-01-01T05:12:32.784Z,4.67
2023-01-01T05:13:36.953Z,4.66
2023-01-01T05:14:40.088Z,4.72
2023-01-01T05:15:43.292Z,5.01
2023-01-01T05:16:46.592Z,5.57
2023-01-01T05:17:49.810Z,5.34
2023-01-01T05:18:53.417Z,4.50
2023-01-01T05:19:56.639Z,4.66
2023-01-01T05:22:12.499Z,5.27
2023-01-01T05:23:17.260Z,4.37
2023-01-01T05:24:20.331Z,4.55
2023-01-01T05:25:23.763Z,4.27
2023-01-01T05:26:29.496Z,4.49
2023-01-01T05:27:32.693Z,4.18
2023-01-01T05:28:36.127Z,4.62
2023-01-01T05:29:39.280Z,4.26
2023-01-01T05:30:42.210Z,4.71
2023-01-01T05:31:45.902Z,4.41
2023-01-01T05:32:49.059Z,4.48
2023-01-01T05:33:52.924Z,4.54
2023-01-01T05:34:56.030Z,4.28
2023-01-01T05:35:59.191Z,4.33
2023-01-01T05:37:02.357Z,4.64
2023-01-01T05:38:05.407Z,4.46
2023-01-01T05:39:11.235Z,4.84
2023-01-01T05:40:14.639Z,4.40
2023-01-01T05:41:19.370Z,4.36
2023-01-01T05:42:22.576Z,4.39
2023-01-01T05:43:25.782Z,4.84
2023-01-01T05:44:28.944Z,5.29
2023-01-01T05:45:32.167Z,4.79
2023-01-01T05:46:35.583Z,5.03
2023-01-01T05:47:38.720Z,4.75
2023-01-01T05:48:42.263Z,4.28
2023-01-01T05:49:45.507Z,4.63
2023-01-01T05:50:48.659Z,4.56
2023-01-01T05:51:51.808Z,4.85
2023-01-01T05:52:54.890Z,4.47
2023-01-01T05:53:58.422Z,4.09
2023-01-01T05:55:01.629Z,4.43
2023-01-01T05:56:05.560Z,4.72
2023-01-01T05:57:08.640Z,4.47
2023-01-01T05:58:11.693Z,4.79
2023-01-01T05:59:14.832Z,4.77
2023-01-01T06:00:18.616Z,4.71
2023-01-01T06:01:28.242Z,5.15
2023-01-01T06:02:31.364Z,5.14
2023-01-01T06:03:34.442Z,5.33
2023-01-01T06:04:37.839Z,4.76
2023-01-01T06:05:40.897Z,5.54
2023-01-01T06:06:44.148Z,4.94
2023-01-01T06:07:48.732Z,6.14
2023-01-01T06:08:54.492Z,5.88
2023-01-01T06:09:57.646Z,6.34
2023-01-01T06:11:03.104Z,6.10
2023-01-01T06:12:07.178Z,6.31
2023-01-01T06:13:13.398Z,5.83
2023-01-01T06:14:16.239Z,6.61
2023-01-01T06:15:19.433Z,5.81
2023-01-01T06:16:23.218Z,5.93
2023-01-01T06:17:26.474Z,6.04
2023-01-01T06:18:31.928Z,5.75
2023-01-01T06:19:35.077Z,5.45
2023-01-01T06:20:38.482Z,5.32
2023-01-01T06:21:41.775Z,5.06
2023-01-01T06:22:45.116Z,5.09
2023-01-01T06:23:48.764Z,6.09
2023-01-01T06:24:51.831Z,5.28
2023-01-01T06:25:54.983Z,4.66
2023-01-01T06:26:58.361Z,5.23
2023-01-01T06:28:01.623Z,4.59
2023-01-01T06:29:04.818Z,4.87
2023-01-01T06:30:09.069Z,5.02
2023-01-01T06:31:14.693Z,5.23
2023-01-01T06:32:18.027Z,5.09
2023-01-01T06:33:21.243Z,5.64
2023-01-01T06:34:24.611Z,5.62
2023-01-01T06:35:28.211Z,4.92
2023-01-01T06:36:31.343Z,5.41
2023-01-01T06:37:34.527Z,4.89
2023-01-01T06:38:43.131Z,5.35
2023-01-01T06:39:46.321Z,4.44
2023-01-01T06:41:01.288Z,5.06
2023-01-01T06:42:04.567Z,4.64
2023-01-01T06:43:07.732Z,4.41
2023-01-01T06:44:10.817Z,4.83
2023-01-01T06:45:13.995Z,5.46
2023-01-01T06:46:20.140Z,4.84
2023-01-01T06:47:23.476Z,5.18
2023-01-01T06:48:28.965Z,5.40
2023-01-01T06:49:32.370Z,5.09
2023-01-01T06:50:35.794Z,4.47
2023-01-01T06:52:51.655Z,5.41
2023-01-01T06:53:57.029Z,5.01
2023-01-01T06:55:00.262Z,5.00
2023-01-01T06:56:03.745Z,4.96
2023-01-01T06:57:06.908Z,4.61
2023-01-01T06:58:10.291Z,5.24
2023-01-01T06:59:13.876Z,5.62
2023-01-01T07:00:17.150Z,4.95
2023-01-01T07:01:23.522Z,4.86
2023-01-01T07:02:27.003Z,5.28
2023-01-01T07:03:30.284Z,5.34
2023-01-01T07:04:33.510Z,5.34
2023-01-01T07:05:36.598Z,5.44
2023-01-01T07:06:40.011Z,6.09
2023-01-01T07:07:43.164Z,5.49
2023-01-01T07:08:46.242Z,5.12
2023-01-01T07:09:49.377Z,5.39
2023-01-01T07:10:52.666Z,6.18
2023-01-01T07:11:55.777Z,5.38
2023-01-01T07:13:00.354Z,5.79
2023-01-01T07:14:03.833Z,6.14
2023-01-01T07:15:07.806Z,7.56
2023-01-01T07:16:13.388Z,5.47
2023-01-01T07:17:16.524Z,5.26
2023-01-01T07:18:20.665Z,5.63
2023-01-01T07:19:23.856Z,5.78
2023-01-01T07:20:27.002Z,5.83
2023-01-01T07:21:36.451Z,5.54
2023-01-01T07:22:40.396Z,7.73
2023-01-01T07:23:43.552Z,6.35
2023-01-01T07:24:47.809Z,6.44
2023-01-01T07:25:52.234Z,5.97
2023-01-01T07:26:55.193Z,5.76
2023-01-01T07:27:58.346Z,6.14
2023-01-01T07:29:08.011Z,6.49
2023-01-01T07:30:07.973Z,6.01
2023-01-01T07:31:11.196Z,6.54
2023-01-01T07:32:14.214Z,6.66
2023-01-01T07:33:19.069Z,6.79
2023-01-01T07:34:23.408Z,7.57
2023-01-01T07:35:26.449Z,6.92
2023-01-01T07:36:29.684Z,6.63
2023-01-01T07:37:32.869Z,7.66
2023-01-01T07:38:36.240Z,7.55
2023-01-01T07:39:39.386Z,6.89
2023-01-01T07:40:42.609Z,7.36
2023-01-01T07:41:45.877Z,7.37
2023-01-01T07:42:49.536Z,7.47
2023-01-01T07:43:52.736Z,7.26
2023-01-01T07:44:55.779Z,7.91
2023-01-01T07:45:59.554Z,7.16
2023-01-01T07:47:07.620Z,7.51
2023-01-01T07:48:14.419Z,6.81
2023-01-01T07:49:17.501Z,7.37
2023-01-01T07:50:21.879Z,8.44
2023-01-01T07:51:25.111Z,7.85
2023-01-01T07:52:28.319Z,7.36
2023-01-01T07:53:31.512Z,7.77
2023-01-01T07:54:34.677Z,7.17
2023-01-01T07:55:37.884Z,9.90
2023-01-01T07:56:41.080Z,7.97
2023-01-01T07:57:45.079Z,7.36
2023-01-01T07:58:48.381Z,8.35
2023-01-01T07:59:51.651Z,7.54
2023-01-01T08:00:54.861Z,8.03
2023-01-01T08:01:58.083Z,7.36
2023-01-01T08:03:01.377Z,7.18
2023-01-01T08:04:04.879Z,6.34
2023-01-01T08:05:08.706Z,7.16
2023-01-01T08:06:13.325Z,7.44
2023-01-01T08:07:16.518Z,6.75
2023-01-01T08:08:19.722Z,6.24
2023-01-01T08:09:22.914Z,7.42
2023-01-01T08:10:25.994Z,6.81
2023-01-01T08:11:29.138Z,6.30
2023-01-01T08:12:32.874Z,6.44
2023-01-01T08:13:36.112Z,6.22
2023-01-01T08:14:39.290Z,6.52
2023-01-01T08:15:42.497Z,7.16
2023-01-01T08:16:45.740Z,7.19
2023-01-01T08:17:48.907Z,6.71
2023-01-01T08:18:51.976Z,6.72
2023-01-01T08:19:55.196Z,6.21
2023-01-01T08:20:58.367Z,7.04
2023-01-01T08:22:01.612Z,6.60
2023-01-01T08:23:07.400Z,6.79
2023-01-01T08:24:09.709Z,6.32
2023-01-01T08:25:13.101Z,6.66
2023-01-01T08:26:17.602Z,6.67
2023-01-01T08:27:20.689Z,7.06
2023-01-01T08:28:23.840Z,6.84
2023-01-01T08:29:27.002Z,6.21
2023-01-01T08:30:30.220Z,6.64
2023-01-01T08:31:33.914Z,6.66
2023-01-01T08:32:36.975Z,6.11
2023-01-01T08:33:40.145Z,6.78
2023-01-01T08:34:43.188Z,6.37
2023-01-01T08:35:51.940Z,6.81
2023-01-01T08:36:51.410Z,7.17
2023-01-01T08:37:54.507Z,6.96
2023-01-01T08:38:57.459Z,7.42
2023-01-01T08:40:00.492Z,7.30
2023-01-01T08:41:03.622Z,6.92
2023-01-01T08:42:11.982Z,6.81
2023-01-01T08:43:11.877Z,6.76
2023-01-01T08:44:14.933Z,7.22
2023-01-01T08:45:18.125Z,7.59
2023-01-01T08:46:21.335Z,7.74
2023-01-01T08:47:26.370Z,6.99
2023-01-01T08:48:31.030Z,7.00
2023-01-01T08:49:34.286Z,7.13
2023-01-01T08:50:37.926Z,7.01
2023-01-01T08:51:40.970Z,6.38
2023-01-01T08:52:44.187Z,7.01
2023-01-01T08:53:51.299Z,6.85
2023-01-01T08:54:52.100Z,7.34
2023-01-01T08:56:00.992Z,7.37
2023-01-01T08:57:04.893Z,6.83
2023-01-01T08:58:08.097Z,6.47
2023-01-01T08:59:11.289Z,6.33
2023-01-01T09:00:15.716Z,6.66
2023-01-01T09:01:20.677Z,7.52
2023-01-01T09:02:42.529Z,7.21
2023-01-01T09:03:45.743Z,6.78
2023-01-01T09:04:48.922Z,6.84
2023-01-01T09:05:52.430Z,6.84
2023-01-01T09:06:55.870Z,7.22
2023-01-01T09:07:58.921Z,6.99
2023-01-01T09:09:02.083Z,6.95
2023-01-01T09:10:06.122Z,6.57
2023-01-01T09:11:21.910Z,6.39
2023-01-01T09:12:25.094Z,6.59
2023-01-01T09:13:28.945Z,6.94
2023-01-01T09:14:33.922Z,6.98
2023-01-01T09:15:37.341Z,6.87
2023-01-01T09:16:44.267Z,6.23
2023-01-01T09:17:45.639Z,6.31
2023-01-01T09:18:48.992Z,6.56
2023-01-01T09:19:52.165Z,6.46
2023-01-01T09:20:55.496Z,6.95
2023-01-01T09:21:58.694Z,6.99
2023-01-01T09:23:05.803Z,7.14
2023-01-01T09:24:07.243Z,7.02
2023-01-01T09:25:10.426Z,7.14
2023-01-01T09:26:14.112Z,6.75
2023-01-01T09:27:17.273Z,7.15
2023-01-01T09:28:25.391Z,6.60
2023-01-01T09:29:25.479Z,7.16
2023-01-01T09:30:29.218Z,6.70
2023-01-01T09:31:32.342Z,6.88
2023-01-01T09:32:35.437Z,7.47
2023-01-01T09:33:39.014Z,6.82
2023-01-01T09:34:46.015Z,7.26
2023-01-01T09:35:47.219Z,7.23
2023-01-01T09:36:50.395Z,6.52
2023-01-01T09:37:54.471Z,7.01
2023-01-01T09:38:58.907Z,7.14
2023-01-01T09:40:02.714Z,6.53
2023-01-01T09:42:35.210Z,6.43
2023-01-01T09:43:56.719Z,6.66
2023-01-01T09:45:24.185Z,7.72
2023-01-01T09:46:31.618Z,6.93
2023-01-01T09:47:47.049Z,7.00
2023-01-01T09:49:02.788Z,6.41
2023-01-01T09:50:15.603Z,6.13
2023-01-01T09:51:21.207Z,7.28
2023-01-01T09:52:26.187Z,6.81
2023-01-01T09:53:38.578Z,6.49
2023-01-01T09:54:53.932Z,6.48
2023-01-01T09:56:05.126Z,5.95
2023-01-01T09:57:18.047Z,6.63
2023-01-01T09:58:20.384Z,6.35
2023-01-01T09:59:24.163Z,6.42
2023-01-01T10:00:30.974Z,6.26
2023-01-01T10:01:52.870Z,6.36
2023-01-01T10:03:14.762Z,7.22
2023-01-01T10:04:39.414Z,6.93
2023-01-01T10:06:05.607Z,6.69
2023-01-01T10:07:27.295Z,6.58
2023-01-01T10:08:59.562Z,6.14
2023-01-01T10:10:12.044Z,6.81
2023-01-01T10:11:40.014Z,7.12
2023-01-01T10:12:55.688Z,6.48
2023-01-01T10:14:01.218Z,6.88
2023-01-01T10:15:25.718Z,6.89
2023-01-01T10:16:38.541Z,6.67
2023-01-01T10:17:50.972Z,6.63
2023-01-01T10:18:57.726Z,6.25
2023-01-01T10:20:23.816Z,6.77
2023-01-01T10:21:30.518Z,7.02
2023-01-01T10:22:40.797Z,7.56
2023-01-01T10:23:50.624Z,7.43
2023-01-01T10:25:00.428Z,6.85
2023-01-01T10:26:10.126Z,7.08
2023-01-01T10:28:45.554Z,7.18
2023-01-01T10:29:50.555Z,7.07
2023-01-01T10:30:57.445Z,7.24
2023-01-01T10:32:04.198Z,7.29
2023-01-01T10:33:14.325Z,7.49
2023-01-01T10:34:21.086Z,6.96
2023-01-01T10:36:39.740Z,7.33
2023-01-01T10:37:43.045Z,7.67
2023-01-01T10:38:48.669Z,6.87
2023-01-01T10:39:51.850Z,6.99
2023-01-01T10:40:58.831Z,7.03
2023-01-01T10:42:03.221Z,7.39
2023-01-01T10:43:08.108Z,6.81
2023-01-01T10:44:13.098Z,7.08
2023-01-01T10:45:22.671Z,6.76
2023-01-01T10:46:31.763Z,7.17
2023-01-01T10:47:31.889Z,6.78
2023-01-01T10:48:35.551Z,6.89
2023-01-01T10:49:56.794Z,6.92
2023-01-01T10:51:04.318Z,7.11
2023-01-01T10:52:11.078Z,6.91
2023-01-01T10:53:38.631Z,7.02
2023-01-01T10:54:41.774Z,6.92
2023-01-01T10:55:50.487Z,6.74
2023-01-01T10:56:53.579Z,6.64
2023-01-01T10:57:57.562Z,7.63
2023-01-01T10:59:00.721Z,7.25
2023-01-01T11:00:26.736Z,6.96
2023-01-01T11:01:32.037Z,7.00
2023-01-01T11:02:36.528Z,6.43
2023-01-01T11:03:57.806Z,7.65
2023-01-01T11:05:22.336Z,7.75
2023-01-01T11:06:27.412Z,7.36
2023-01-01T11:07:34.173Z,7.07
2023-01-01T11:08:40.751Z,7.22
2023-01-01T11:10:02.035Z,7.15
2023-01-01T11:10:52.969Z,8.05
2023-01-01T11:12:08.080Z,7.51
2023-01-01T11:13:16.146Z,7.74
2023-01-01T11:15:42.200Z,7.65
2023-01-01T11:16:46.095Z,8.40
2023-01-01T11:17:49.309Z,8.63
2023-01-01T11:18:54.422Z,7.99
2023-01-01T11:20:02.100Z,8.42
2023-01-01T11:21:06.420Z,8.87
2023-01-01T11:22:13.165Z,8.08
2023-01-01T11:23:37.698Z,7.58
2023-01-01T11:24:40.823Z,8.87
2023-01-01T11:25:58.571Z,8.02
2023-01-01T11:27:14.406Z,7.46
2023-01-01T11:28:21.335Z,8.49
2023-01-01T11:29:29.307Z,8.08
2023-01-01T11:30:32.809Z,7.69
2023-01-01T11:31:38.534Z,7.84
2023-01-01T11:32:41.706Z,8.04
2023-01-01T11:33:48.458Z,7.39
2023-01-01T11:35:05.706Z,6.99
2023-01-01T11:36:09.439Z,7.24
2023-01-01T11:37:16.165Z,7.14
2023-01-01T11:38:27.707Z,7.38
2023-01-01T11:39:28.624Z,7.38
2023-01-01T11:40:47.280Z,7.75
2023-01-01T11:41:53.879Z,7.17
2023-01-01T11:43:02.487Z,7.98
2023-01-01T11:44:05.807Z,7.49
2023-01-01T11:45:27.373Z,7.72
2023-01-01T11:47:43.130Z,8.23
2023-01-01T11:48:46.410Z,7.56
2023-01-01T11:50:18.871Z,8.19
2023-01-01T11:51:32.830Z,7.67
2023-01-01T11:52:39.886Z,7.81
2023-01-01T11:53:43.236Z,7.87
2023-01-01T11:54:47.125Z,7.79
2023-01-01T11:55:59.634Z,6.86
2023-01-01T11:57:06.295Z,7.54
2023-01-01T11:58:19.328Z,7.67
2023-01-01T11:59:22.431Z,7.95
2023-01-01T12:00:25.584Z,7.74
2023-01-01T12:01:44.537Z,8.04
2023-01-01T12:04:10.880Z,8.15
2023-01-01T12:05:17.700Z,8.32
2023-01-01T12:06:25.065Z,7.81
2023-01-01T12:07:31.600Z,7.81
2023-01-01T12:08:38.252Z,7.98
2023-01-01T12:09:53.895Z,8.88
2023-01-01T12:11:00.591Z,7.89
2023-01-01T12:12:13.192Z,8.39
2023-01-01T12:13:19.943Z,7.81
2023-01-01T12:14:33.263Z,7.79
2023-01-01T12:15:40.056Z,7.83
2023-01-01T12:16:50.277Z,7.35
2023-01-01T12:19:19.743Z,8.22
2023-01-01T12:20:36.570Z,8.23
2023-01-01T12:21:49.001Z,7.51
2023-01-01T12:22:48.675Z,7.67
2023-01-01T12:23:52.021Z,8.33
2023-01-01T12:24:56.359Z,8.43
2023-01-01T12:26:18.090Z,8.65
2023-01-01T12:27:33.758Z,8.11
2023-01-01T12:29:00.205Z,8.53
2023-01-01T12:30:18.692Z,8.42
2023-01-01T12:33:07.900Z,8.96
2023-01-01T12:34:18.537Z,8.84
2023-01-01T12:36:51.253Z,8.21
2023-01-01T12:38:09.994Z,9.06
2023-01-01T12:39:32.280Z,8.63
2023-01-01T12:40:55.672Z,8.47
2023-01-01T12:42:20.668Z,8.36
2023-01-01T12:43:33.383Z,7.97
2023-01-01T12:44:42.782Z,8.66
2023-01-01T12:45:58.423Z,9.07
2023-01-01T12:47:21.680Z,8.77
2023-01-01T12:50:12.435Z,8.42
2023-01-01T12:51:53.676Z,8.84
2023-01-01T12:53:18.832Z,8.36
2023-01-01T12:56:09.097Z,8.51
2023-01-01T12:57:18.812Z,8.98
2023-01-01T12:58:28.253Z,9.41
2023-01-01T12:59:39.298Z,8.27
2023-01-01T13:00:46.593Z,9.43
2023-01-01T13:01:53.120Z,9.09
2023-01-01T13:03:02.878Z,9.07
2023-01-01T13:04:09.565Z,8.95
2023-01-01T13:05:19.170Z,8.08
2023-01-01T13:06:28.576Z,8.33
2023-01-01T13:08:48.226Z,10.32
2023-01-01T13:09:51.702Z,9.17
2023-01-01T13:10:58.071Z,9.17
2023-01-01T13:12:13.704Z,9.31
2023-01-01T13:13:17.685Z,8.95
2023-01-01T13:14:20.807Z,9.45
2023-01-01T13:15:43.637Z,9.24
2023-01-01T13:16:53.473Z,8.72
2023-01-01T13:17:56.709Z,8.59
2023-01-01T13:19:02.798Z,8.54
2023-01-01T13:20:17.792Z,9.12
2023-01-01T13:21:25.217Z,7.98
2023-01-01T13:22:31.991Z,8.87
2023-01-01T13:23:40.121Z,8.63
2023-01-01T13:24:46.896Z,8.17
2023-01-01T13:25:53.633Z,8.89
2023-01-01T13:26:57.035Z,8.33
2023-01-01T13:28:03.004Z,8.83
2023-01-01T13:29:15.354Z,8.19
2023-01-01T13:30:42.805Z,8.05
2023-01-01T13:32:01.731Z,8.88
2023-01-01T13:33:29.321Z,8.31
2023-01-01T13:35:01.160Z,8.24
2023-01-01T13:36:19.818Z,8.31
2023-01-01T13:37:31.202Z,8.23
2023-01-01T13:38:53.873Z,8.26
2023-01-01T13:40:14.990Z,8.84
2023-01-01T13:41:36.348Z,8.29
2023-01-01T13:43:04.248Z,8.94
2023-01-01T13:44:08.054Z,8.82
2023-01-01T13:46:48.660Z,8.89
2023-01-01T13:48:15.081Z,8.37
2023-01-01T13:49:36.716Z,8.82
2023-01-01T13:50:46.473Z,9.17
2023-01-01T13:52:09.826Z,9.19
2023-01-01T13:53:22.487Z,8.84
2023-01-01T13:54:45.637Z,9.34
2023-01-01T13:55:58.211Z,9.43
2023-01-01T13:57:10.905Z,9.98
2023-01-01T13:58:37.065Z,9.79
2023-01-01T14:01:26.689Z,9.32
2023-01-01T14:02:39.201Z,9.13
2023-01-01T14:03:49.357Z,10.00
2023-01-01T14:04:56.125Z,9.38
2023-01-01T14:06:02.902Z,8.94
2023-01-01T14:07:53.069Z,9.87
2023-01-01T14:08:35.475Z,9.94
2023-01-01T14:09:38.592Z,9.93
2023-01-01T14:10:45.544Z,10.61
2023-01-01T14:11:49.653Z,10.29
2023-01-01T14:12:54.365Z,9.74
2023-01-01T14:13:57.438Z,9.87
2023-01-01T14:15:04.478Z,9.42
2023-01-01T14:16:12.177Z,10.81
2023-01-01T14:17:16.571Z,10.09
2023-01-01T14:18:21.737Z,10.29
2023-01-01T14:19:26.723Z,11.27
2023-01-01T14:21:45.262Z,10.50
2023-01-01T14:22:50.488Z,9.93
2023-01-01T14:23:59.567Z,10.21
2023-01-01T14:25:09.409Z,10.15
2023-01-01T14:26:13.973Z,9.31
2023-01-01T14:27:20.328Z,10.16
2023-01-01T14:28:29.457Z,10.26
2023-01-01T14:29:32.686Z,9.93
2023-01-01T14:30:36.264Z,9.38
2023-01-01T14:31:43.049Z,10.54
2023-01-01T14:32:46.208Z,9.67
2023-01-01T14:33:49.374Z,8.79
2023-01-01T14:35:01.028Z,9.73
2023-01-01T14:36:07.868Z,9.76
2023-01-01T14:37:24.546Z,9.19
2023-01-01T14:38:30.187Z,9.19
2023-01-01T14:39:35.727Z,9.65
2023-01-01T14:40:39.442Z,9.78
2023-01-01T14:41:42.843Z,10.28
2023-01-01T14:42:49.368Z,9.83
2023-01-01T14:43:55.462Z,10.22
2023-01-01T14:44:58.682Z,10.81
2023-01-01T14:46:07.527Z,10.34
2023-01-01T14:47:22.312Z,9.46
2023-01-01T14:48:25.588Z,10.43
2023-01-01T14:49:38.449Z,9.86
2023-01-01T14:50:43.426Z,10.01
2023-01-01T14:51:50.289Z,10.30
2023-01-01T14:53:05.762Z,10.31
2023-01-01T14:54:12.639Z,10.85
2023-01-01T14:55:18.895Z,10.97
2023-01-01T14:56:31.487Z,10.44
2023-01-01T14:57:36.876Z,9.76
2023-01-01T14:58:41.289Z,11.40
2023-01-01T14:59:49.234Z,10.69
2023-01-01T15:00:53.108Z,10.56
2023-01-01T15:02:13.949Z,10.32
2023-01-01T15:03:22.106Z,10.58
2023-01-01T15:04:25.669Z,10.77
2023-01-01T15:05:35.427Z,10.53
2023-01-01T15:06:42.035Z,10.48
2023-01-01T15:07:49.637Z,11.26
2023-01-01T15:08:53.273Z,11.71
2023-01-01T15:10:01.096Z,11.58
2023-01-01T15:11:04.636Z,11.34
2023-01-01T15:12:13.639Z,10.55
2023-01-01T15:13:23.163Z,11.59
2023-01-01T15:14:39.065Z,10.87
2023-01-01T15:15:44.992Z,12.30
2023-01-01T15:17:04.755Z,11.26
2023-01-01T15:18:27.849Z,11.63
2023-01-01T15:19:31.058Z,11.09
2023-01-01T15:20:35.654Z,11.23
2023-01-01T15:21:41.028Z,12.30
2023-01-01T15:22:44.712Z,11.89
2023-01-01T15:25:13.853Z,11.18
2023-01-01T15:26:20.928Z,10.82
2023-01-01T15:27:27.650Z,11.73